Time;durP1;ratioP1;P1;durP2;ratioP2;P2;SDS_P1;SDS_P2;PMS_P1;PMS_P2;Temp;Humidity;BMP_temperature;BMP_pressure;BME280_temperature;BME280_humidity;BME280_pressure;Samples;Min_cycle;Max_cycle;Signal;HPM_P1;HPM_P2
2022/12/18 00:01:37;;;;;;;59.27;39.40;;;-4.60;99.90;;;;;;5054975;28;20409;-69
2022/12/18 00:04:07;;;;;;;68.43;40.37;;;-4.70;99.90;;;;;;5055146;28;20194;-69
2022/12/18 00:06:34;;;;;;;57.77;36.17;;;-4.60;99.90;;;;;;5053638;28;20412;-69
2022/12/18 00:09:01;;;;;;;55.70;37.70;;;-4.60;99.90;;;;;;5053540;28;20420;-69
2022/12/18 00:11:29;;;;;;;60.03;37.57;;;-4.70;99.90;;;;;;5054408;28;20417;-69
2022/12/18 00:13:57;;;;;;;60.70;36.13;;;-4.70;99.90;;;;;;5053294;28;20511;-69
2022/12/18 00:16:24;;;;;;;63.37;37.13;;;-4.70;99.90;;;;;;5055222;28;20412;-69
2022/12/18 00:18:52;;;;;;;58.20;36.00;;;-4.70;99.90;;;;;;5054765;28;20769;-70
2022/12/18 00:21:19;;;;;;;54.37;35.33;;;-4.70;99.90;;;;;;5054805;28;20405;-70
2022/12/18 00:23:46;;;;;;;49.03;31.00;;;-4.60;99.90;;;;;;5053639;28;20433;-69
2022/12/18 00:26:18;;;;;;;54.43;35.00;;;-4.70;99.90;;;;;;5053407;28;20413;-69
2022/12/18 00:28:44;;;;;;;61.13;37.13;;;-4.60;99.90;;;;;;5055169;28;20414;-68
2022/12/18 00:31:15;;;;;;;54.70;35.77;;;-4.50;99.90;;;;;;5055008;28;20400;-68
2022/12/18 00:33:41;;;;;;;50.23;33.67;;;-4.50;99.90;;;;;;5054402;28;20466;-71
2022/12/18 00:36:12;;;;;;;60.43;36.60;;;-4.50;99.90;;;;;;5054622;28;20467;-68
2022/12/18 00:38:38;;;;;;;55.80;35.60;;;-4.50;99.90;;;;;;5054814;28;20170;-70
2022/12/18 00:41:05;;;;;;;49.33;33.63;;;-4.50;99.90;;;;;;5051804;28;20511;-70
2022/12/18 00:43:33;;;;;;;53.20;32.00;;;-4.50;99.90;;;;;;5052937;28;20433;-70
2022/12/18 00:45:59;;;;;;;50.80;33.80;;;-4.50;99.90;;;;;;5054306;28;20406;-70
2022/12/18 00:48:25;;;;;;;54.70;33.57;;;-4.60;99.90;;;;;;5052898;28;20412;-70
2022/12/18 00:50:51;;;;;;;59.70;37.40;;;-4.60;99.90;;;;;;5054165;28;20253;-70
2022/12/18 00:53:17;;;;;;;54.83;36.03;;;-4.60;99.90;;;;;;5053615;28;20205;-69
2022/12/18 00:55:43;;;;;;;52.20;35.27;;;-4.60;99.90;;;;;;5053816;28;20445;-70
2022/12/18 00:58:10;;;;;;;51.23;36.37;;;-4.60;99.90;;;;;;5053748;28;20778;-69
2022/12/18 01:00:36;;;;;;;54.33;36.33;;;-4.50;99.90;;;;;;5054031;28;20490;-70
2022/12/18 01:03:02;;;;;;;55.77;34.13;;;-4.60;99.90;;;;;;5053017;28;20445;-70
2022/12/18 01:05:27;;;;;;;55.47;36.43;;;-4.60;99.90;;;;;;5054046;28;20965;-70
2022/12/18 01:07:53;;;;;;;51.23;34.63;;;-4.70;99.90;;;;;;5052535;28;20170;-69
2022/12/18 01:10:19;;;;;;;49.00;33.30;;;-4.70;99.90;;;;;;5053862;28;20209;-70
2022/12/18 01:12:44;;;;;;;53.90;35.07;;;-4.70;99.90;;;;;;5053128;28;20685;-70
2022/12/18 01:15:12;;;;;;;54.63;34.90;;;-4.70;99.90;;;;;;5053309;28;20441;-69
2022/12/18 01:17:37;;;;;;;52.57;37.33;;;-5.00;99.90;;;;;;5053651;28;20169;-69
2022/12/18 01:20:03;;;;;;;52.37;34.27;;;-4.90;99.90;;;;;;5052302;28;20405;-69
2022/12/18 01:22:29;;;;;;;57.90;36.57;;;-4.70;99.90;;;;;;5053526;28;20177;-69
2022/12/18 01:24:55;;;;;;;43.20;31.47;;;-4.80;99.90;;;;;;5053492;28;20488;-69
2022/12/18 01:27:20;;;;;;;44.50;29.00;;;-4.70;99.90;;;;;;5052953;28;20163;-69
2022/12/18 01:29:46;;;;;;;51.70;32.77;;;-4.80;99.90;;;;;;5054032;28;20235;-69
2022/12/18 01:32:11;;;;;;;49.07;31.80;;;-4.90;99.90;;;;;;5053331;28;20186;-69
2022/12/18 01:34:38;;;;;;;51.00;35.10;;;-5.10;99.90;;;;;;5068490;28;20313;-69
2022/12/18 01:37:05;;;;;;;54.53;31.83;;;-5.10;99.90;;;;;;5053497;28;20448;-69
2022/12/18 01:39:31;;;;;;;53.70;33.37;;;-5.10;99.90;;;;;;5053269;28;20174;-69
2022/12/18 01:42:03;;;;;;;52.40;33.77;;;-5.20;99.90;;;;;;5047286;28;20521;-69
2022/12/18 01:44:51;;;;;;;51.97;34.10;;;-5.20;99.90;;;;;;5033386;28;20429;-70
2022/12/18 01:47:32;;;;;;;49.70;34.63;;;-5.20;99.90;;;;;;5033338;28;20428;-69
2022/12/18 01:50:21;;;;;;;48.13;30.17;;;-5.00;99.90;;;;;;5033657;28;20409;-70
2022/12/18 01:52:56;;;;;;;48.80;31.30;;;-4.80;99.90;;;;;;5032734;28;20434;-70
2022/12/18 01:55:25;;;;;;;53.53;31.80;;;-4.70;99.90;;;;;;5032096;28;20453;-70
2022/12/18 01:57:57;;;;;;;54.43;34.37;;;-4.50;99.90;;;;;;5032826;28;20449;-70
2022/12/18 02:00:24;;;;;;;57.70;35.67;;;-4.40;99.90;;;;;;5048646;28;20414;-70
2022/12/18 02:02:50;;;;;;;45.93;30.60;;;-4.60;99.90;;;;;;5033175;28;20425;-70
2022/12/18 02:05:30;;;;;;;50.07;32.37;;;-4.50;99.90;;;;;;5033226;28;20423;-69
2022/12/18 02:08:21;;;;;;;49.10;32.10;;;-4.40;99.90;;;;;;5033235;28;20402;-70
2022/12/18 02:11:06;;;;;;;53.33;32.70;;;-4.20;99.90;;;;;;5034370;28;20440;-70
2022/12/18 02:14:02;;;;;;;45.20;31.43;;;-4.10;99.90;;;;;;5052654;28;20428;-69
2022/12/18 02:16:33;;;;;;;45.57;28.60;;;-4.30;99.90;;;;;;5057040;28;20402;-69
2022/12/18 02:19:16;;;;;;;50.10;33.10;;;-4.20;99.90;;;;;;5057293;28;20424;-69
2022/12/18 02:22:19;;;;;;;48.73;31.27;;;-4.10;99.90;;;;;;5057601;28;20378;-69
2022/12/18 02:25:13;;;;;;;48.47;34.70;;;-4.00;99.90;;;;;;5055946;28;20486;-69
2022/12/18 02:27:41;;;;;;;51.57;33.93;;;-3.90;99.90;;;;;;5056692;28;20392;-69
2022/12/18 02:30:08;;;;;;;56.83;34.53;;;-4.00;99.90;;;;;;5055497;28;20789;-67
2022/12/18 02:32:47;;;;;;;49.13;31.50;;;-4.10;99.90;;;;;;5056574;28;20428;-69
2022/12/18 02:35:16;;;;;;;53.43;34.37;;;-4.20;99.90;;;;;;5055422;28;20449;-69
2022/12/18 02:37:44;;;;;;;51.70;34.70;;;-4.10;99.90;;;;;;5055233;28;20463;-69
2022/12/18 02:40:12;;;;;;;52.33;34.97;;;-4.10;99.90;;;;;;5056930;28;20409;-69
2022/12/18 02:42:37;;;;;;;51.13;33.60;;;-4.10;99.90;;;;;;5055119;28;20946;-69
2022/12/18 02:45:03;;;;;;;45.70;31.80;;;-4.10;99.90;;;;;;5055967;28;20413;-68
2022/12/18 02:47:32;;;;;;;58.30;36.77;;;-4.10;99.90;;;;;;5056132;28;20173;-69
2022/12/18 02:50:05;;;;;;;50.33;34.57;;;-4.00;99.90;;;;;;5056161;28;20467;-68
2022/12/18 02:53:04;;;;;;;46.90;30.73;;;-4.00;99.90;;;;;;5055961;28;20393;-69
2022/12/18 02:55:56;;;;;;;45.60;31.70;;;-4.00;99.90;;;;;;5036525;28;20892;-69
2022/12/18 02:58:33;;;;;;;49.87;32.17;;;-4.10;99.90;;;;;;5031548;28;20421;-69
2022/12/18 03:01:33;;;;;;;47.60;32.20;;;-4.20;99.90;;;;;;5036630;28;20386;-68
2022/12/18 03:04:04;;;;;;;48.83;32.83;;;-4.20;99.90;;;;;;5036165;28;20418;-69
2022/12/18 03:06:34;;;;;;;46.13;28.57;;;-4.30;99.90;;;;;;5036291;28;20387;-68
2022/12/18 03:09:05;;;;;;;41.23;28.00;;;-4.30;99.90;;;;;;5051356;28;20428;-68
2022/12/18 03:14:21;;;;;;;43.33;26.37;;;-4.30;99.90;;;;;;5055413;28;20490;-69
2022/12/18 03:16:52;;;;;;;42.77;26.67;;;-4.40;99.90;;;;;;5056580;28;20903;-69
2022/12/18 03:19:22;;;;;;;41.07;25.67;;;-4.40;99.90;;;;;;5055945;28;20435;-69
2022/12/18 03:21:51;;;;;;;49.20;28.60;;;-4.40;99.90;;;;;;5055698;28;20394;-69
2022/12/18 03:24:18;;;;;;;43.23;27.70;;;-4.40;99.90;;;;;;5055655;28;20797;-69
2022/12/18 03:26:48;;;;;;;48.70;28.00;;;-4.40;99.90;;;;;;5055113;28;20401;-71
2022/12/18 03:29:21;;;;;;;42.03;26.50;;;-4.40;99.90;;;;;;5055104;28;20406;-70
2022/12/18 03:31:53;;;;;;;42.67;28.67;;;-4.50;99.90;;;;;;5056270;28;20377;-70
2022/12/18 03:34:26;;;;;;;42.10;26.83;;;-4.70;99.90;;;;;;5055225;28;20488;-70
2022/12/18 03:36:52;;;;;;;44.07;26.20;;;-4.70;99.90;;;;;;5056422;28;20473;-70
2022/12/18 03:39:18;;;;;;;36.37;24.43;;;-4.70;99.90;;;;;;5054157;28;20499;-70
2022/12/18 03:42:01;;;;;;;41.80;27.23;;;-4.80;99.90;;;;;;5055356;28;20174;-70
2022/12/18 03:44:29;;;;;;;47.73;28.33;;;-4.80;99.90;;;;;;5054144;28;20947;-70
2022/12/18 03:47:27;;;;;;;46.00;28.93;;;-5.10;99.90;;;;;;5055694;28;20814;-70
2022/12/18 03:50:14;;;;;;;38.73;27.37;;;-5.30;99.90;;;;;;5055755;28;20427;-70
2022/12/18 03:53:17;;;;;;;46.27;29.23;;;-5.30;99.90;;;;;;5055109;28;20923;-70
2022/12/18 03:55:44;;;;;;;45.07;26.13;;;-5.30;99.90;;;;;;5044029;28;20472;-70
2022/12/18 03:58:15;;;;;;;43.20;28.10;;;-5.50;99.90;;;;;;5054641;28;20401;-70
2022/12/18 04:00:42;;;;;;;44.50;28.93;;;-5.60;99.90;;;;;;5053990;28;20412;-70
2022/12/18 04:03:08;;;;;;;49.93;30.00;;;-5.70;99.90;;;;;;5054954;28;20425;-69
2022/12/18 04:05:36;;;;;;;44.50;28.27;;;-5.70;99.90;;;;;;5054849;28;20582;-70
2022/12/18 04:08:02;;;;;;;48.27;30.00;;;-5.70;99.90;;;;;;5055178;28;20547;-69
2022/12/18 04:10:29;;;;;;;50.67;28.33;;;-5.70;99.90;;;;;;5055087;28;20405;-70
2022/12/18 04:12:58;;;;;;;47.93;29.10;;;-5.60;99.90;;;;;;5054463;28;20840;-70
2022/12/18 04:15:24;;;;;;;49.70;29.97;;;-5.60;99.90;;;;;;5055067;28;20454;-70
2022/12/18 04:17:50;;;;;;;37.67;27.40;;;-5.70;99.90;;;;;;5054964;28;20437;-70
2022/12/18 04:20:16;;;;;;;43.07;28.27;;;-5.70;99.90;;;;;;5054803;28;20415;-70
2022/12/18 04:22:42;;;;;;;40.43;26.67;;;-5.70;99.90;;;;;;5055027;28;20421;-70
2022/12/18 04:25:12;;;;;;;44.13;27.53;;;-5.70;99.90;;;;;;5054633;28;20402;-70
2022/12/18 04:27:38;;;;;;;42.80;27.60;;;-5.80;99.90;;;;;;5053291;28;20420;-70
2022/12/18 04:30:04;;;;;;;38.63;25.67;;;-5.70;99.90;;;;;;5054159;28;20405;-70
2022/12/18 04:32:30;;;;;;;44.77;27.00;;;-5.70;99.90;;;;;;5054246;28;20185;-70
2022/12/18 04:34:56;;;;;;;45.93;28.40;;;-5.70;99.90;;;;;;5054885;28;20434;-70
2022/12/18 04:37:21;;;;;;;48.97;28.17;;;-5.70;99.90;;;;;;5054540;28;20881;-70
2022/12/18 04:39:47;;;;;;;45.40;27.40;;;-5.70;99.90;;;;;;5054307;28;20247;-70
2022/12/18 04:42:12;;;;;;;38.63;26.30;;;-5.80;99.90;;;;;;5054526;28;20166;-68
2022/12/18 04:44:38;;;;;;;46.30;28.10;;;-5.80;99.90;;;;;;5053700;28;20198;-70
2022/12/18 04:47:03;;;;;;;42.37;28.90;;;-5.90;99.90;;;;;;5053442;28;20175;-70
2022/12/18 04:49:29;;;;;;;39.93;25.67;;;-6.00;99.90;;;;;;5054487;28;20177;-70
2022/12/18 04:51:55;;;;;;;42.00;28.00;;;-6.20;99.90;;;;;;5053174;28;20181;-70
2022/12/18 04:54:20;;;;;;;42.93;27.23;;;-6.30;99.90;;;;;;5054228;28;20774;-69
2022/12/18 04:56:46;;;;;;;44.33;27.00;;;-6.20;99.90;;;;;;5050544;28;20171;-70
2022/12/18 04:59:11;;;;;;;46.73;28.47;;;-6.20;99.90;;;;;;5053851;28;20251;-70
2022/12/18 05:01:37;;;;;;;42.70;27.97;;;-6.10;99.90;;;;;;5054517;28;20167;-70
2022/12/18 05:04:03;;;;;;;46.73;28.37;;;-6.00;99.90;;;;;;5052685;28;20241;-70
2022/12/18 05:06:29;;;;;;;40.90;26.47;;;-6.00;99.90;;;;;;5053254;28;20177;-69
2022/12/18 05:08:54;;;;;;;46.33;28.20;;;-5.80;99.90;;;;;;5053797;28;20474;-70
2022/12/18 05:11:20;;;;;;;45.10;25.67;;;-5.80;99.90;;;;;;5053747;28;20220;-70
2022/12/18 05:13:49;;;;;;;44.93;27.90;;;-5.70;99.90;;;;;;5053440;28;20305;-70
2022/12/18 05:16:14;;;;;;;41.47;27.60;;;-5.70;99.90;;;;;;5053623;28;20174;-70
2022/12/18 05:18:40;;;;;;;43.33;30.13;;;-5.60;99.90;;;;;;5053659;28;20895;-70
2022/12/18 05:21:06;;;;;;;39.70;26.17;;;-5.70;99.90;;;;;;5052405;28;20506;-70
2022/12/18 05:23:35;;;;;;;45.70;27.57;;;-5.80;99.90;;;;;;5053471;28;20185;-69
2022/12/18 05:26:04;;;;;;;46.30;27.60;;;-5.90;99.90;;;;;;5053854;28;20250;-69
2022/12/18 05:28:32;;;;;;;43.00;25.00;;;-6.00;99.90;;;;;;5051879;28;20420;-70
2022/12/18 05:31:00;;;;;;;41.90;28.17;;;-6.00;99.90;;;;;;5053366;28;20405;-68
2022/12/18 05:33:28;;;;;;;45.67;30.17;;;-6.10;99.90;;;;;;5053426;28;20796;-70
2022/12/18 05:35:55;;;;;;;41.80;26.53;;;-6.10;99.90;;;;;;5054157;28;20439;-70
2022/12/18 05:38:22;;;;;;;44.20;28.83;;;-6.20;99.90;;;;;;5052585;28;20420;-70
2022/12/18 05:40:49;;;;;;;45.13;29.13;;;-6.30;99.90;;;;;;5052814;28;20408;-70
2022/12/18 05:43:15;;;;;;;40.23;26.13;;;-6.30;99.90;;;;;;5051316;28;20851;-70
2022/12/18 05:45:41;;;;;;;46.87;29.60;;;-6.30;99.90;;;;;;5054295;28;20460;-70
2022/12/18 05:48:07;;;;;;;38.73;28.10;;;-6.40;99.90;;;;;;5054121;28;20544;-70
2022/12/18 05:50:37;;;;;;;45.63;28.13;;;-6.50;99.90;;;;;;5052521;28;20773;-70
2022/12/18 05:53:04;;;;;;;40.57;26.67;;;-6.60;99.90;;;;;;5053127;28;20840;-70
2022/12/18 05:55:36;;;;;;;38.97;26.67;;;-6.70;99.90;;;;;;5053098;28;20452;-70
2022/12/18 05:58:03;;;;;;;40.67;25.97;;;-6.60;99.90;;;;;;5052849;28;20392;-70
2022/12/18 06:00:30;;;;;;;42.87;26.37;;;-6.60;99.90;;;;;;5051634;28;20417;-69
2022/12/18 06:02:55;;;;;;;40.80;26.53;;;-6.60;99.90;;;;;;5053001;28;20425;-70
2022/12/18 06:05:21;;;;;;;38.80;27.60;;;-6.70;99.90;;;;;;5052973;28;20411;-70
2022/12/18 06:07:46;;;;;;;46.40;27.87;;;-6.70;99.90;;;;;;5053548;28;20270;-69
2022/12/18 06:10:12;;;;;;;47.23;27.50;;;-6.70;99.90;;;;;;5053215;28;20168;-70
2022/12/18 06:12:37;;;;;;;46.50;30.57;;;-6.70;99.90;;;;;;5052721;28;20199;-69
2022/12/18 06:15:04;;;;;;;44.73;28.33;;;-6.70;99.90;;;;;;5052518;28;20229;-69
2022/12/18 06:17:30;;;;;;;44.03;26.90;;;-6.80;99.90;;;;;;5052817;28;20181;-70
2022/12/18 06:19:56;;;;;;;40.73;25.60;;;-6.90;99.90;;;;;;5053152;28;20458;-70
2022/12/18 06:22:22;;;;;;;42.37;25.90;;;-6.80;99.90;;;;;;5053177;28;20436;-70
2022/12/18 06:24:47;;;;;;;39.20;26.23;;;-6.80;99.90;;;;;;5051766;28;20537;-69
2022/12/18 06:27:13;;;;;;;40.40;25.93;;;-6.90;99.90;;;;;;5053574;28;20490;-70
2022/12/18 06:29:39;;;;;;;43.63;26.20;;;-6.90;99.90;;;;;;5051388;28;20177;-70
2022/12/18 06:32:05;;;;;;;44.73;24.93;;;-6.90;99.90;;;;;;5054129;28;20412;-70
2022/12/18 06:34:30;;;;;;;32.60;22.90;;;-6.90;99.90;;;;;;5052694;28;20213;-70
2022/12/18 06:36:56;;;;;;;37.00;23.97;;;-6.80;99.90;;;;;;5053127;28;20170;-68
2022/12/18 06:39:21;;;;;;;42.80;26.47;;;-6.80;99.90;;;;;;5052708;28;20243;-69
2022/12/18 06:41:47;;;;;;;42.50;25.77;;;-6.90;99.90;;;;;;5052620;28;20174;-70
2022/12/18 06:44:12;;;;;;;44.40;26.97;;;-7.00;99.90;;;;;;5051180;28;20243;-70
2022/12/18 06:46:38;;;;;;;35.13;24.47;;;-7.00;99.90;;;;;;5052649;28;20200;-70
2022/12/18 06:49:03;;;;;;;33.93;23.87;;;-7.00;99.90;;;;;;5052038;28;20175;-70
2022/12/18 06:51:29;;;;;;;39.87;26.77;;;-6.90;99.90;;;;;;5067893;28;20177;-70
2022/12/18 06:53:55;;;;;;;44.73;26.37;;;-6.80;99.90;;;;;;5052350;28;20190;-69
2022/12/18 06:56:21;;;;;;;41.80;29.27;;;-6.70;99.90;;;;;;5052675;28;20406;-70
2022/12/18 06:58:46;;;;;;;42.57;29.40;;;-6.80;99.90;;;;;;5051996;28;20177;-68
2022/12/18 07:01:13;;;;;;;41.30;30.27;;;-6.80;99.90;;;;;;5053144;28;20184;-70
2022/12/18 07:03:40;;;;;;;46.70;28.47;;;-6.80;99.90;;;;;;5056992;28;20201;-70
2022/12/18 07:06:06;;;;;;;39.67;25.70;;;-6.80;99.90;;;;;;5056577;28;20407;-69
2022/12/18 07:08:33;;;;;;;38.93;26.33;;;-6.80;99.90;;;;;;5054334;28;20990;-70
2022/12/18 07:10:59;;;;;;;44.33;25.93;;;-6.80;99.90;;;;;;5056585;28;20415;-69
2022/12/18 07:13:24;;;;;;;40.43;26.57;;;-6.80;99.90;;;;;;5055639;28;20844;-70
2022/12/18 07:15:50;;;;;;;37.00;24.80;;;-6.80;99.90;;;;;;5056063;28;20196;-70
2022/12/18 07:18:15;;;;;;;39.67;24.33;;;-6.70;99.90;;;;;;5056172;28;20198;-70
2022/12/18 07:20:41;;;;;;;44.00;25.83;;;-6.70;99.90;;;;;;5055975;28;20173;-69
2022/12/18 07:23:06;;;;;;;40.73;27.40;;;-6.70;99.90;;;;;;5055855;28;20250;-70
2022/12/18 07:25:36;;;;;;;40.83;28.83;;;-6.60;99.90;;;;;;5056144;28;20203;-69
2022/12/18 07:28:02;;;;;;;45.93;27.23;;;-6.60;99.90;;;;;;5057921;28;20544;-69
2022/12/18 07:30:28;;;;;;;44.33;30.07;;;-6.50;99.90;;;;;;5059981;28;20422;-70
2022/12/18 07:32:53;;;;;;;39.40;28.93;;;-6.40;99.90;;;;;;5059174;28;20839;-71
2022/12/18 07:35:19;;;;;;;41.20;28.70;;;-6.40;99.90;;;;;;5058937;28;20226;-70
2022/12/18 07:37:45;;;;;;;37.67;25.10;;;-6.40;99.90;;;;;;5058906;28;20174;-70
2022/12/18 07:40:11;;;;;;;32.67;23.80;;;-6.30;99.90;;;;;;5057269;28;20570;-70
2022/12/18 07:42:37;;;;;;;34.20;24.27;;;-6.30;99.90;;;;;;5057480;28;20913;-71
2022/12/18 07:45:03;;;;;;;41.70;24.80;;;-6.30;99.90;;;;;;5058796;28;20431;-70
2022/12/18 07:47:29;;;;;;;53.87;32.37;;;-6.20;99.90;;;;;;5058815;28;20197;-70
2022/12/18 07:49:54;;;;;;;46.90;28.10;;;-6.10;99.90;;;;;;5055315;28;20413;-70
2022/12/18 07:52:20;;;;;;;35.67;23.87;;;-6.00;99.90;;;;;;5055612;28;20407;-71
2022/12/18 07:54:48;;;;;;;36.33;23.63;;;-5.90;99.90;;;;;;5055218;28;20295;-69
2022/12/18 07:57:14;;;;;;;34.93;22.97;;;-5.90;99.90;;;;;;5055305;28;20838;-68
2022/12/18 07:59:39;;;;;;;37.73;24.10;;;-5.90;99.90;;;;;;5054744;28;20442;-70
2022/12/18 08:02:05;;;;;;;36.40;24.50;;;-5.80;99.90;;;;;;5055462;28;20179;-70
2022/12/18 08:04:31;;;;;;;36.17;24.40;;;-5.70;99.90;;;;;;5055232;28;20607;-68
2022/12/18 08:06:56;;;;;;;33.03;24.57;;;-5.60;99.90;;;;;;5055359;28;20679;-70
2022/12/18 08:09:22;;;;;;;41.80;25.93;;;-5.50;99.90;;;;;;5055818;28;20660;-70
2022/12/18 08:11:47;;;;;;;38.67;25.63;;;-5.50;99.90;;;;;;5054835;28;20171;-71
2022/12/18 08:14:14;;;;;;;33.73;26.10;;;-5.50;99.90;;;;;;5054045;28;20732;-69
2022/12/18 08:16:40;;;;;;;33.43;24.50;;;-5.50;99.90;;;;;;5055345;28;20176;-70
2022/12/18 08:19:05;;;;;;;38.17;25.90;;;-5.50;99.90;;;;;;5055431;28;20412;-68
2022/12/18 08:21:31;;;;;;;34.70;24.30;;;-5.50;99.90;;;;;;5055046;28;20170;-68
2022/12/18 08:23:59;;;;;;;36.43;22.50;;;-5.40;99.90;;;;;;5054808;28;20569;-68
2022/12/18 08:26:27;;;;;;;45.63;30.57;;;-5.40;99.90;;;;;;5054899;28;20398;-69
2022/12/18 08:28:54;;;;;;;36.00;24.03;;;-5.30;99.90;;;;;;5054164;28;20432;-70
2022/12/18 08:31:20;;;;;;;34.00;23.47;;;-5.30;99.90;;;;;;5054649;28;20417;-68
2022/12/18 08:33:49;;;;;;;35.80;25.50;;;-5.40;99.90;;;;;;5054674;28;20562;-68
2022/12/18 08:36:14;;;;;;;35.47;22.90;;;-5.30;99.90;;;;;;5054405;28;20460;-70
2022/12/18 08:38:40;;;;;;;32.60;23.17;;;-5.20;99.90;;;;;;5053174;28;20463;-69
2022/12/18 08:41:10;;;;;;;35.67;23.57;;;-5.10;99.90;;;;;;5054644;28;20191;-70
2022/12/18 08:46:22;;;;;;;39.80;28.10;;;-5.00;99.90;;;;;;5054083;28;20392;-70
2022/12/18 08:48:49;;;;;;;37.83;26.27;;;-5.00;99.90;;;;;;5052914;28;20452;-70
2022/12/18 08:51:19;;;;;;;35.23;24.77;;;-4.90;99.90;;;;;;5054427;28;20429;-70
2022/12/18 08:53:45;;;;;;;39.10;25.60;;;-4.80;99.90;;;;;;5054004;28;20456;-70
2022/12/18 08:56:12;;;;;;;54.17;34.83;;;-4.80;99.90;;;;;;5054053;28;20441;-70
2022/12/18 08:58:37;;;;;;;49.83;33.17;;;-4.90;99.90;;;;;;5053571;28;20405;-70
2022/12/18 09:01:05;;;;;;;42.37;27.10;;;-4.90;99.90;;;;;;5054013;28;20904;-70
2022/12/18 09:03:32;;;;;;;44.47;27.17;;;-4.80;99.90;;;;;;5054035;28;20280;-70
2022/12/18 09:05:58;;;;;;;38.83;25.27;;;-4.70;99.90;;;;;;5053910;28;20412;-70
2022/12/18 09:08:23;;;;;;;38.93;25.37;;;-4.70;99.90;;;;;;5053471;28;20405;-70
2022/12/18 09:10:50;;;;;;;36.40;23.60;;;-4.60;99.90;;;;;;5053976;28;20183;-70
2022/12/18 09:13:16;;;;;;;35.90;24.40;;;-4.40;99.90;;;;;;5048450;28;20292;-70
2022/12/18 09:15:47;;;;;;;30.50;21.43;;;-4.30;99.90;;;;;;5033951;28;20450;-70
2022/12/18 09:18:14;;;;;;;33.13;22.07;;;-4.10;99.90;;;;;;5034409;28;20902;-70
2022/12/18 09:20:40;;;;;;;35.50;25.17;;;-4.00;99.90;;;;;;5049149;28;20413;-70
2022/12/18 09:23:06;;;;;;;42.33;28.73;;;-3.80;99.90;;;;;;5033692;28;20900;-70
2022/12/18 09:25:33;;;;;;;42.67;28.40;;;-3.90;99.90;;;;;;5032905;28;20168;-70
2022/12/18 09:28:00;;;;;;;43.10;28.10;;;-4.00;99.90;;;;;;5033803;28;20895;-68
2022/12/18 09:30:26;;;;;;;44.20;29.73;;;-3.90;99.90;;;;;;5033387;28;20453;-70
2022/12/18 09:32:55;;;;;;;35.73;25.30;;;-3.80;99.90;;;;;;5033461;28;20940;-70
2022/12/18 09:35:20;;;;;;;41.13;28.37;;;-3.60;99.90;;;;;;5033801;28;20458;-69
2022/12/18 09:37:46;;;;;;;43.13;30.77;;;-3.50;99.90;;;;;;5034977;28;20432;-68
2022/12/18 09:40:21;;;;;;;41.80;29.83;;;-3.30;99.90;;;;;;5035169;28;20178;-68
2022/12/18 09:43:01;;;;;;;45.27;28.90;;;-3.30;99.90;;;;;;5035063;28;20504;-68
2022/12/18 09:45:28;;;;;;;39.17;28.57;;;-3.20;99.90;;;;;;5054291;28;20385;-68
2022/12/18 09:47:55;;;;;;;45.87;30.57;;;-3.20;99.90;;;;;;5054036;28;20451;-68
2022/12/18 09:50:35;;;;;;;46.03;31.63;;;-3.00;99.90;;;;;;5054147;28;20934;-66
2022/12/18 09:53:06;;;;;;;45.53;28.30;;;-2.90;99.90;;;;;;5053941;28;20424;-69
2022/12/18 09:55:37;;;;;;;45.73;30.60;;;-2.70;99.90;;;;;;5053783;28;20453;-67
2022/12/18 09:58:13;;;;;;;42.70;30.70;;;-2.70;99.90;;;;;;5054122;28;20387;-69
2022/12/18 10:00:38;;;;;;;41.20;29.00;;;-2.50;99.90;;;;;;5053407;28;20393;-67
2022/12/18 10:03:11;;;;;;;45.90;34.27;;;-2.70;99.90;;;;;;5053880;28;20416;-69
2022/12/18 10:05:45;;;;;;;43.00;28.27;;;-2.80;99.90;;;;;;5053752;28;20242;-70
2022/12/18 10:08:16;;;;;;;43.13;29.67;;;-2.90;99.90;;;;;;5053870;28;20416;-69
2022/12/18 10:10:53;;;;;;;48.47;29.13;;;-3.00;99.90;;;;;;5052155;28;20437;-70
2022/12/18 10:13:44;;;;;;;41.07;30.97;;;-2.80;99.90;;;;;;5052958;28;20923;-69
2022/12/18 10:16:10;;;;;;;48.47;30.23;;;-2.50;99.90;;;;;;5053800;28;20432;-70
2022/12/18 10:18:44;;;;;;;43.03;29.20;;;-2.40;99.90;;;;;;5052911;28;20457;-69
2022/12/18 10:21:20;;;;;;;42.37;28.03;;;-2.40;99.90;;;;;;5052911;28;20385;-70
2022/12/18 10:24:26;;;;;;;36.33;24.90;;;-2.10;99.90;;;;;;5051614;28;20496;-69
2022/12/18 10:26:56;;;;;;;39.90;24.90;;;-1.70;99.90;;;;;;5031104;28;20412;-71
2022/12/18 10:29:22;;;;;;;41.60;25.73;;;-1.60;99.90;;;;;;5049595;28;20409;-70
2022/12/18 10:31:47;;;;;;;40.30;26.67;;;-1.40;99.90;;;;;;5053719;28;20403;-69
2022/12/18 10:34:13;;;;;;;39.90;24.37;;;-1.50;99.90;;;;;;5053326;28;20455;-69
2022/12/18 10:36:39;;;;;;;36.67;23.60;;;-1.60;99.90;;;;;;5055924;28;20197;-70
2022/12/18 10:39:19;;;;;;;39.20;24.63;;;-1.80;99.90;;;;;;5058037;28;20171;-70
2022/12/18 10:41:45;;;;;;;39.67;26.13;;;-1.50;99.90;;;;;;5057115;28;20523;-69
2022/12/18 10:44:23;;;;;;;42.87;25.43;;;-1.40;99.90;;;;;;5054690;28;20454;-69
2022/12/18 10:47:03;;;;;;;37.10;23.23;;;-1.20;99.90;;;;;;5057431;28;20139;-69
2022/12/18 10:49:32;;;;;;;38.70;24.57;;;-1.10;99.90;;;;;;5057319;28;20377;-69
2022/12/18 10:52:24;;;;;;;35.67;22.77;;;-1.10;99.90;;;;;;5057167;28;20480;-69
2022/12/18 10:54:58;;;;;;;37.77;23.90;;;-1.00;99.90;;;;;;5055915;28;20449;-69
2022/12/18 10:57:26;;;;;;;30.13;20.67;;;-0.40;99.90;;;;;;5035958;28;20790;-69
2022/12/18 10:59:54;;;;;;;37.60;23.20;;;0.80;99.90;;;;;;5036450;28;20896;-68
2022/12/18 11:02:28;;;;;;;30.00;22.40;;;2.10;99.90;;;;;;5036710;28;20406;-69
2022/12/18 11:04:53;;;;;;;38.40;23.17;;;2.00;99.90;;;;;;5043121;28;20901;-69
2022/12/18 11:07:19;;;;;;;35.67;23.90;;;2.80;99.90;;;;;;5055362;28;20404;-69
2022/12/18 11:10:00;;;;;;;31.43;22.90;;;3.30;99.90;;;;;;5056154;28;20252;-69
2022/12/18 11:12:28;;;;;;;32.33;21.90;;;4.00;99.90;;;;;;5054946;28;20654;-69
2022/12/18 11:14:56;;;;;;;32.67;21.87;;;5.20;99.90;;;;;;5055612;28;20476;-69
2022/12/18 11:17:25;;;;;;;34.30;23.30;;;5.40;99.20;;;;;;5056403;28;20401;-69
2022/12/18 11:19:59;;;;;;;35.30;23.47;;;5.70;98.60;;;;;;5056030;28;20404;-69
2022/12/18 11:22:27;;;;;;;31.40;22.70;;;4.70;98.30;;;;;;5056350;28;20659;-69
2022/12/18 11:25:00;;;;;;;34.30;25.00;;;4.70;99.50;;;;;;5056129;28;20466;-69
2022/12/18 11:27:27;;;;;;;32.70;23.13;;;4.50;98.90;;;;;;5056825;28;20387;-70
2022/12/18 11:30:20;;;;;;;32.90;22.07;;;4.00;99.50;;;;;;5055913;28;20501;-69
2022/12/18 11:32:51;;;;;;;34.83;24.67;;;4.70;99.90;;;;;;5056246;28;20819;-68
2022/12/18 11:35:41;;;;;;;31.67;22.90;;;5.80;98.00;;;;;;5056440;28;20437;-68
2022/12/18 11:38:28;;;;;;;31.97;23.03;;;7.10;96.40;;;;;;5056144;28;20385;-68
2022/12/18 11:41:03;;;;;;;35.30;24.50;;;6.70;95.50;;;;;;5056698;28;20474;-68
2022/12/18 11:43:43;;;;;;;29.97;21.20;;;4.90;96.50;;;;;;5055005;28;20440;-69
2022/12/18 11:46:14;;;;;;;32.27;21.60;;;5.10;97.30;;;;;;5055874;28;20382;-68
2022/12/18 11:49:09;;;;;;;32.30;22.77;;;6.00;96.60;;;;;;5053148;28;20559;-68
2022/12/18 11:51:47;;;;;;;32.47;22.23;;;6.20;96.00;;;;;;5054522;28;20425;-69
2022/12/18 11:54:15;;;;;;;28.70;20.07;;;5.30;96.00;;;;;;5055349;28;20999;-68
2022/12/18 11:56:51;;;;;;;34.40;24.10;;;4.50;96.70;;;;;;5054170;28;20495;-68
2022/12/18 11:59:27;;;;;;;27.33;20.40;;;3.50;98.40;;;;;;5055228;28;20384;-68
2022/12/18 12:01:58;;;;;;;29.93;20.80;;;3.90;99.80;;;;;;5056220;28;20389;-68
2022/12/18 12:04:46;;;;;;;31.93;22.17;;;4.30;98.60;;;;;;5055911;28;20779;-68
2022/12/18 12:07:32;;;;;;;29.95;23.70;;;4.10;98.10;;;;;;5054540;28;20450;-70
2022/12/18 12:10:06;;;;;;;30.47;23.07;;;5.00;98.80;;;;;;5054876;28;20174;-72
2022/12/18 12:12:47;;;;;;;31.57;23.03;;;5.70;96.90;;;;;;5055255;28;20449;-70
2022/12/18 12:15:38;;;;;;;31.17;22.07;;;4.90;97.00;;;;;;5053126;28;20449;-71
2022/12/18 12:18:19;;;;;;;33.13;22.17;;;3.90;98.10;;;;;;5054911;28;20937;-70
2022/12/18 12:21:05;;;;;;;34.97;23.87;;;4.10;98.60;;;;;;5055301;28;20397;-70
2022/12/18 12:23:50;;;;;;;35.10;23.50;;;3.50;98.80;;;;;;5054801;28;20500;-72
2022/12/18 12:26:30;;;;;;;36.93;23.23;;;2.80;99.80;;;;;;5055429;28;20796;-71
2022/12/18 12:28:58;;;;;;;34.67;24.33;;;2.20;99.90;;;;;;5054722;28;20421;-71
2022/12/18 12:31:42;;;;;;;34.33;22.83;;;2.10;99.90;;;;;;5055430;28;20413;-71
2022/12/18 12:34:26;;;;;;;32.13;21.93;;;1.80;99.90;;;;;;5054895;28;20498;-71
2022/12/18 12:37:21;;;;;;;34.57;23.70;;;1.40;99.90;;;;;;5053804;28;20419;-71
2022/12/18 12:39:47;;;;;;;37.40;23.43;;;1.10;99.90;;;;;;5053826;28;20968;-71
2022/12/18 12:45:46;;;;;;;33.33;21.93;;;0.70;99.90;;;;;;5054099;28;20850;-72
2022/12/18 12:48:41;;;;;;;34.50;22.90;;;0.70;99.90;;;;;;5053681;28;20392;-71
2022/12/18 12:51:16;;;;;;;32.17;22.27;;;1.00;99.90;;;;;;5039026;28;20436;-71
2022/12/18 12:53:41;;;;;;;32.83;21.43;;;1.40;99.90;;;;;;5054383;28;20412;-69